sensor_id;sensor_type;location;lat;lon;timestamp;P1;P2;P0
45112;PMS5003;30873;53.908;27.576;2023-08-20T00:00:31;45.3;36.9;24.4
45112;PMS5003;30873;53.908;27.576;2023-08-20T00:05:23;44.1;37.5;24.7
45112;PMS5003;30873;53.908;27.576;2023-08-20T00:10:55;44.9;37.8;24.8
45112;PMS5003;30873;53.908;27.576;2023-08-20T00:15:41;47.8;38.6;25.9
45112;PMS5003;30873;53.908;27.576;2023-08-20T00:20:33;50.5;41.6;28.6
45112;PMS5003;30873;53.908;27.576;2023-08-20T00:25:39;46.1;38.3;26
45112;PMS5003;30873;53.908;27.576;2023-08-20T00:31:01;46.5;38.5;25.3
45112;PMS5003;30873;53.908;27.576;2023-08-20T00:36:03;44.8;37.2;24.8
45112;PMS5003;30873;53.908;27.576;2023-08-20T00:40:27;46.2;37.4;24.4
45112;PMS5003;30873;53.908;27.576;2023-08-20T00:45:40;45.7;37.4;24.6
45112;PMS5003;30873;53.908;27.576;2023-08-20T00:51:03;46.5;37.8;25
45112;PMS5003;30873;53.908;27.576;2023-08-20T00:55:41;45.4;37.7;24.5
45112;PMS5003;30873;53.908;27.576;2023-08-20T01:00:55;46.1;38.2;25.3
45112;PMS5003;30873;53.908;27.576;2023-08-20T01:05:43;42.7;36.1;25.1
45112;PMS5003;30873;53.908;27.576;2023-08-20T01:10:56;44.1;37.3;24.7
45112;PMS5003;30873;53.908;27.576;2023-08-20T01:16:01;46;38.2;25.4
45112;PMS5003;30873;53.908;27.576;2023-08-20T01:20:40;45.1;36.9;24.3
45112;PMS5003;30873;53.908;27.576;2023-08-20T01:26:07;44.6;36.7;24.9
45112;PMS5003;30873;53.908;27.576;2023-08-20T01:30:41;45.2;37.4;24.8
45112;PMS5003;30873;53.908;27.576;2023-08-20T01:36:03;43;36.8;24.8
45112;PMS5003;30873;53.908;27.576;2023-08-20T01:40:33;46.2;38.2;25.3
45112;PMS5003;30873;53.908;27.576;2023-08-20T01:46:04;43.9;36.7;24.7
45112;PMS5003;30873;53.908;27.576;2023-08-20T01:51:03;45;37.4;25.1
45112;PMS5003;30873;53.908;27.576;2023-08-20T01:55:47;46.7;39.2;25.9
45112;PMS5003;30873;53.908;27.576;2023-08-20T02:00:23;45.8;38.3;25.9
45112;PMS5003;30873;53.908;27.576;2023-08-20T02:05:55;44.6;38;24.7
45112;PMS5003;30873;53.908;27.576;2023-08-20T02:10:35;46.8;38.5;25
45112;PMS5003;30873;53.908;27.576;2023-08-20T02:15:56;44.4;37.1;25
45112;PMS5003;30873;53.908;27.576;2023-08-20T02:20:42;46.3;37.9;26.1
45112;PMS5003;30873;53.908;27.576;2023-08-20T02:26:03;45.1;38.2;25.2
45112;PMS5003;30873;53.908;27.576;2023-08-20T02:30:47;46.2;38.4;25.5
45112;PMS5003;30873;53.908;27.576;2023-08-20T02:35:41;46.9;39.1;25.8
45112;PMS5003;30873;53.908;27.576;2023-08-20T02:40:23;46.8;38.5;25.9
45112;PMS5003;30873;53.908;27.576;2023-08-20T02:45:45;45.4;38.4;25.6
45112;PMS5003;30873;53.908;27.576;2023-08-20T02:50:49;45.4;38.7;26.4
45112;PMS5003;30873;53.908;27.576;2023-08-20T02:55:27;44.4;38.3;24.9
45112;PMS5003;30873;53.908;27.576;2023-08-20T03:00:31;46.1;38.3;26.1
45112;PMS5003;30873;53.908;27.576;2023-08-20T03:05:37;47.6;39;25.5
45112;PMS5003;30873;53.908;27.576;2023-08-20T03:10:39;46.5;39.2;26.4
45112;PMS5003;30873;53.908;27.576;2023-08-20T03:15:23;46.5;38.7;25.8
45112;PMS5003;30873;53.908;27.576;2023-08-20T03:20:57;48;39.8;25.7
45112;PMS5003;30873;53.908;27.576;2023-08-20T03:25:51;49.2;40.5;27
45112;PMS5003;30873;53.908;27.576;2023-08-20T03:31:01;47.5;39.7;26.9
45112;PMS5003;30873;53.908;27.576;2023-08-20T03:35:43;48.8;40.1;26.7
45112;PMS5003;30873;53.908;27.576;2023-08-20T03:40:33;47.6;40.2;26.6
45112;PMS5003;30873;53.908;27.576;2023-08-20T03:45:27;47.7;39.8;26.2
45112;PMS5003;30873;53.908;27.576;2023-08-20T03:50:33;48.3;39.9;26.5
45112;PMS5003;30873;53.908;27.576;2023-08-20T03:55:41;47.1;39.5;26.2
45112;PMS5003;30873;53.908;27.576;2023-08-20T04:00:53;46.6;39.1;25.7
45112;PMS5003;30873;53.908;27.576;2023-08-20T04:05:45;46.8;38.4;25.2
45112;PMS5003;30873;53.908;27.576;2023-08-20T04:10:41;47.4;39.2;25.6
45112;PMS5003;30873;53.908;27.576;2023-08-20T04:15:27;48;39.3;26.2
45112;PMS5003;30873;53.908;27.576;2023-08-20T04:20:55;48.9;39.6;25.6
45112;PMS5003;30873;53.908;27.576;2023-08-20T04:25:31;49.1;40.3;26.4
45112;PMS5003;30873;53.908;27.576;2023-08-20T04:30:41;46.3;38.7;26.3
45112;PMS5003;30873;53.908;27.576;2023-08-20T04:35:53;49;40;26.5
45112;PMS5003;30873;53.908;27.576;2023-08-20T04:40:53;49.8;41.4;27.6
45112;PMS5003;30873;53.908;27.576;2023-08-20T04:45:27;50.7;42.1;27.5
45112;PMS5003;30873;53.908;27.576;2023-08-20T04:50:39;49.9;41;27.6
45112;PMS5003;30873;53.908;27.576;2023-08-20T04:56:03;49;40.2;27.3
45112;PMS5003;30873;53.908;27.576;2023-08-20T05:01:03;47.7;39;26.4
45112;PMS5003;30873;53.908;27.576;2023-08-20T05:05:23;47;38.1;25.7
45112;PMS5003;30873;53.908;27.576;2023-08-20T05:10:39;44.6;37.5;25.5
45112;PMS5003;30873;53.908;27.576;2023-08-20T05:16:03;40.7;35;24
45112;PMS5003;30873;53.908;27.576;2023-08-20T05:20:23;40;34.5;23.3
45112;PMS5003;30873;53.908;27.576;2023-08-20T05:25:27;40.7;35.3;23
45112;PMS5003;30873;53.908;27.576;2023-08-20T05:30:53;40.2;34.4;23.2
45112;PMS5003;30873;53.908;27.576;2023-08-20T05:35:51;38.5;33.8;22.9
45112;PMS5003;30873;53.908;27.576;2023-08-20T05:40:43;36.9;33.2;22.1
45112;PMS5003;30873;53.908;27.576;2023-08-20T05:45:47;36.4;32.2;22.4
45112;PMS5003;30873;53.908;27.576;2023-08-20T05:50:23;33.4;30.4;21.4
45112;PMS5003;30873;53.908;27.576;2023-08-20T05:55:23;32.6;29.7;20.5
45112;PMS5003;30873;53.908;27.576;2023-08-20T06:01:03;32.8;30.2;21.4
45112;PMS5003;30873;53.908;27.576;2023-08-20T06:05:39;32.8;30.6;21.6
45112;PMS5003;30873;53.908;27.576;2023-08-20T06:11:03;29.5;28.1;19.7
45112;PMS5003;30873;53.908;27.576;2023-08-20T06:16:03;30.1;28.4;19.7
45112;PMS5003;30873;53.908;27.576;2023-08-20T06:20:49;28.6;26.8;19.6
45112;PMS5003;30873;53.908;27.576;2023-08-20T06:25:49;29.1;27.8;19.7
45112;PMS5003;30873;53.908;27.576;2023-08-20T06:30:23;25.8;24.8;18.5
45112;PMS5003;30873;53.908;27.576;2023-08-20T06:35:45;29.3;26.8;19.5
45112;PMS5003;30873;53.908;27.576;2023-08-20T06:40:49;29.1;27.8;19.8
45112;PMS5003;30873;53.908;27.576;2023-08-20T06:45:27;31.5;29;21.1
45112;PMS5003;30873;53.908;27.576;2023-08-20T06:51:07;28.9;27.7;20
45112;PMS5003;30873;53.908;27.576;2023-08-20T06:56:01;30.7;28.7;20.7
45112;PMS5003;30873;53.908;27.576;2023-08-20T07:00:49;30.8;29.1;20.8
45112;PMS5003;30873;53.908;27.576;2023-08-20T07:05:49;35.3;31.4;23.5
45112;PMS5003;30873;53.908;27.576;2023-08-20T07:10:49;30.7;28.6;21.1
45112;PMS5003;30873;53.908;27.576;2023-08-20T07:15:49;25.3;24;17.5
45112;PMS5003;30873;53.908;27.576;2023-08-20T07:20:41;22.9;22;16.4
45112;PMS5003;30873;53.908;27.576;2023-08-20T07:25:40;22.6;21.5;16.1
45112;PMS5003;30873;53.908;27.576;2023-08-20T07:30:37;22.7;21.7;15.9
45112;PMS5003;30873;53.908;27.576;2023-08-20T07:35:23;23.7;22.2;16.3
45112;PMS5003;30873;53.908;27.576;2023-08-20T07:40:23;21.6;20.4;15.6
45112;PMS5003;30873;53.908;27.576;2023-08-20T07:46:03;22.3;21.3;15.8
45112;PMS5003;30873;53.908;27.576;2023-08-20T07:50:49;22.8;21.9;16.1
45112;PMS5003;30873;53.908;27.576;2023-08-20T07:56:01;22.7;22.5;16.6
45112;PMS5003;30873;53.908;27.576;2023-08-20T08:00:39;23.5;22.5;17.3
45112;PMS5003;30873;53.908;27.576;2023-08-20T08:05:39;23.8;22.4;16.9
45112;PMS5003;30873;53.908;27.576;2023-08-20T08:10:33;23.5;21.7;16.8
45112;PMS5003;30873;53.908;27.576;2023-08-20T08:15:31;23.2;22.4;16.6
45112;PMS5003;30873;53.908;27.576;2023-08-20T08:20:41;21.8;20.7;15.9
45112;PMS5003;30873;53.908;27.576;2023-08-20T08:25:29;20.8;19.8;14.8
45112;PMS5003;30873;53.908;27.576;2023-08-20T08:30:45;21.3;20;15.6
45112;PMS5003;30873;53.908;27.576;2023-08-20T08:35:39;21.1;20.7;15.4
45112;PMS5003;30873;53.908;27.576;2023-08-20T08:40:24;21.5;20.3;15
45112;PMS5003;30873;53.908;27.576;2023-08-20T08:46:01;20.9;19.7;15.2
45112;PMS5003;30873;53.908;27.576;2023-08-20T08:50:33;20.8;19.4;15.1
45112;PMS5003;30873;53.908;27.576;2023-08-20T08:55:41;20.3;19.5;14.7
45112;PMS5003;30873;53.908;27.576;2023-08-20T09:00:37;20.2;19;14.3
45112;PMS5003;30873;53.908;27.576;2023-08-20T09:05:56;17.3;16.4;12.5
45112;PMS5003;30873;53.908;27.576;2023-08-20T09:10:43;18.8;18;13.3
45112;PMS5003;30873;53.908;27.576;2023-08-20T09:15:29;19;17.8;14
45112;PMS5003;30873;53.908;27.576;2023-08-20T09:21:06;19;18.1;13.6
45112;PMS5003;30873;53.908;27.576;2023-08-20T09:26:06;18.2;17.3;13.1
45112;PMS5003;30873;53.908;27.576;2023-08-20T09:30:53;17.4;16.7;12.7
45112;PMS5003;30873;53.908;27.576;2023-08-20T09:35:42;17.5;17.2;12.5
45112;PMS5003;30873;53.908;27.576;2023-08-20T09:41:03;18.1;17.3;13.3
45112;PMS5003;30873;53.908;27.576;2023-08-20T09:45:41;17.5;17;13
45112;PMS5003;30873;53.908;27.576;2023-08-20T09:50:23;17.6;17.3;12.9
45112;PMS5003;30873;53.908;27.576;2023-08-20T09:55:43;18.1;17.2;13.4
45112;PMS5003;30873;53.908;27.576;2023-08-20T10:00:37;17.2;16.9;12.8
45112;PMS5003;30873;53.908;27.576;2023-08-20T10:05:51;16.3;15.9;12.1
45112;PMS5003;30873;53.908;27.576;2023-08-20T10:11:03;16.6;16.1;12.6
45112;PMS5003;30873;53.908;27.576;2023-08-20T10:15:23;16.8;16.3;12.6
45112;PMS5003;30873;53.908;27.576;2023-08-20T10:20:23;16.2;15.5;12.3
45112;PMS5003;30873;53.908;27.576;2023-08-20T10:26:06;17.9;17.3;13.3
45112;PMS5003;30873;53.908;27.576;2023-08-20T10:30:35;17.6;17.3;13.1
45112;PMS5003;30873;53.908;27.576;2023-08-20T10:36:07;17.4;16.9;13.3
45112;PMS5003;30873;53.908;27.576;2023-08-20T10:41:05;18.4;18.1;14.3
45112;PMS5003;30873;53.908;27.576;2023-08-20T10:46:01;18.6;17.8;12.9
45112;PMS5003;30873;53.908;27.576;2023-08-20T10:50:23;17.1;16.3;13.2
45112;PMS5003;30873;53.908;27.576;2023-08-20T10:55:47;18.4;17.6;13.6
45112;PMS5003;30873;53.908;27.576;2023-08-20T11:01:18;19;17.9;13.2
45112;PMS5003;30873;53.908;27.576;2023-08-20T11:05:49;18.7;17.9;13.6
45112;PMS5003;30873;53.908;27.576;2023-08-20T11:10:23;17.6;17.4;13
45112;PMS5003;30873;53.908;27.576;2023-08-20T11:16:04;16.2;15.7;12.3
45112;PMS5003;30873;53.908;27.576;2023-08-20T11:21:05;17.1;16.8;13
45112;PMS5003;30873;53.908;27.576;2023-08-20T11:25:27;17.6;17;12.7
45112;PMS5003;30873;53.908;27.576;2023-08-20T11:30:33;16.4;15.9;12.2
45112;PMS5003;30873;53.908;27.576;2023-08-20T11:35:49;17.1;16.6;12.4
45112;PMS5003;30873;53.908;27.576;2023-08-20T11:40:51;15.3;15.1;11.7
45112;PMS5003;30873;53.908;27.576;2023-08-20T11:45:51;15.9;15.3;12.3
45112;PMS5003;30873;53.908;27.576;2023-08-20T11:50:39;17.5;16.9;13
45112;PMS5003;30873;53.908;27.576;2023-08-20T11:55:29;15.6;14.9;12
45112;PMS5003;30873;53.908;27.576;2023-08-20T12:00:28;15.7;15.1;11.5
45112;PMS5003;30873;53.908;27.576;2023-08-20T12:05:35;16.2;15.6;12.3
45112;PMS5003;30873;53.908;27.576;2023-08-20T12:11:05;18.7;18.2;14.5
45112;PMS5003;30873;53.908;27.576;2023-08-20T12:15:49;15.5;14.9;11.4
45112;PMS5003;30873;53.908;27.576;2023-08-20T12:21:03;15.2;14.9;12.5
45112;PMS5003;30873;53.908;27.576;2023-08-20T12:25:23;16.9;16.5;13.2
45112;PMS5003;30873;53.908;27.576;2023-08-20T12:30:23;15.3;15.2;12.7
45112;PMS5003;30873;53.908;27.576;2023-08-20T12:35:47;16;15.4;13.1
45112;PMS5003;30873;53.908;27.576;2023-08-20T12:40:33;16.5;15.5;12.7
45112;PMS5003;30873;53.908;27.576;2023-08-20T12:45:23;17.5;16.9;13.9
45112;PMS5003;30873;53.908;27.576;2023-08-20T12:50:55;18.5;17.9;14.5
45112;PMS5003;30873;53.908;27.576;2023-08-20T12:56:03;17;16.5;13.3
45112;PMS5003;30873;53.908;27.576;2023-08-20T13:00:23;19.4;19;14.7
45112;PMS5003;30873;53.908;27.576;2023-08-20T13:05:24;19.9;19.2;14.7
45112;PMS5003;30873;53.908;27.576;2023-08-20T13:11:03;19.9;19.1;14.2
45112;PMS5003;30873;53.908;27.576;2023-08-20T13:15:23;19.6;18.7;14.7
45112;PMS5003;30873;53.908;27.576;2023-08-20T13:20:37;18.8;18.3;14.7
45112;PMS5003;30873;53.908;27.576;2023-08-20T13:25:55;17.7;17.4;13.3
45112;PMS5003;30873;53.908;27.576;2023-08-20T13:30:55;17.6;16.3;12.7
45112;PMS5003;30873;53.908;27.576;2023-08-20T13:35:23;17.4;16.4;12.5
45112;PMS5003;30873;53.908;27.576;2023-08-20T13:40:35;15.4;15.1;12
45112;PMS5003;30873;53.908;27.576;2023-08-20T13:46:03;23;23;18.4
45112;PMS5003;30873;53.908;27.576;2023-08-20T13:51:03;21.4;21.3;18.2
45112;PMS5003;30873;53.908;27.576;2023-08-20T13:55:41;18.3;17.9;14.6
45112;PMS5003;30873;53.908;27.576;2023-08-20T14:00:40;22.6;21.6;18.1
45112;PMS5003;30873;53.908;27.576;2023-08-20T14:06:05;16;15.6;12.2
45112;PMS5003;30873;53.908;27.576;2023-08-20T14:10:41;25.5;24.6;19.6
45112;PMS5003;30873;53.908;27.576;2023-08-20T14:15:23;19.7;18.8;14.7
45112;PMS5003;30873;53.908;27.576;2023-08-20T14:20:49;17;16.3;13.1
45112;PMS5003;30873;53.908;27.576;2023-08-20T14:25:39;17;16.6;12.7
45112;PMS5003;30873;53.908;27.576;2023-08-20T14:30:51;16.9;16.2;12.5
45112;PMS5003;30873;53.908;27.576;2023-08-20T14:35:49;16.1;15.5;12.3
45112;PMS5003;30873;53.908;27.576;2023-08-20T14:40:40;16.7;15.6;12.4
45112;PMS5003;30873;53.908;27.576;2023-08-20T14:45:37;16.4;16.1;12.8
45112;PMS5003;30873;53.908;27.576;2023-08-20T14:51:05;38.4;34.2;26.8
45112;PMS5003;30873;53.908;27.576;2023-08-20T14:55:31;17.9;16.9;13.5
45112;PMS5003;30873;53.908;27.576;2023-08-20T15:01:03;17.7;17.5;13.6
45112;PMS5003;30873;53.908;27.576;2023-08-20T15:06:05;18.6;17.5;13.2
45112;PMS5003;30873;53.908;27.576;2023-08-20T15:10:48;19.4;18.5;14.7
45112;PMS5003;30873;53.908;27.576;2023-08-20T15:15:50;19.1;18.8;14.1
45112;PMS5003;30873;53.908;27.576;2023-08-20T15:20:37;18.5;17.6;13.5
45112;PMS5003;30873;53.908;27.576;2023-08-20T15:26:03;18.9;17.4;13.2
45112;PMS5003;30873;53.908;27.576;2023-08-20T15:30:49;19;18.5;13.6
45112;PMS5003;30873;53.908;27.576;2023-08-20T15:35:51;17.9;17.5;13
45112;PMS5003;30873;53.908;27.576;2023-08-20T15:41:04;18.2;17.3;13.4
45112;PMS5003;30873;53.908;27.576;2023-08-20T15:46:03;18.3;17.6;13.6
45112;PMS5003;30873;53.908;27.576;2023-08-20T15:50:23;20.9;20;15.4
45112;PMS5003;30873;53.908;27.576;2023-08-20T15:55:33;18.1;17.2;13.7
45112;PMS5003;30873;53.908;27.576;2023-08-20T16:01:00;16.4;16.3;12.6
45112;PMS5003;30873;53.908;27.576;2023-08-20T16:05:45;18.2;16.9;13.1
45112;PMS5003;30873;53.908;27.576;2023-08-20T16:10:37;17.9;17.5;14.1
45112;PMS5003;30873;53.908;27.576;2023-08-20T16:15:31;18.8;18.3;14
45112;PMS5003;30873;53.908;27.576;2023-08-20T16:20:41;18.3;17.5;13.6
45112;PMS5003;30873;53.908;27.576;2023-08-20T16:25:33;19.6;18.9;14.6
45112;PMS5003;30873;53.908;27.576;2023-08-20T16:30:35;19.4;19.2;14.3
45112;PMS5003;30873;53.908;27.576;2023-08-20T16:36:03;20.1;19;14.4
45112;PMS5003;30873;53.908;27.576;2023-08-20T16:40:49;20.2;19.4;14.2
45112;PMS5003;30873;53.908;27.576;2023-08-20T16:46:03;20.3;19.3;14.6
45112;PMS5003;30873;53.908;27.576;2023-08-20T16:50:23;22.8;21.4;15.9
45112;PMS5003;30873;53.908;27.576;2023-08-20T16:55:23;24.2;23.3;17.6
45112;PMS5003;30873;53.908;27.576;2023-08-20T17:00:23;22.6;21.9;16.7
45112;PMS5003;30873;53.908;27.576;2023-08-20T17:05:23;23.1;21.9;16.4
45112;PMS5003;30873;53.908;27.576;2023-08-20T17:10:23;27.9;25.4;18.8
45112;PMS5003;30873;53.908;27.576;2023-08-20T17:15:55;26.5;24.8;18.2
45112;PMS5003;30873;53.908;27.576;2023-08-20T17:21:03;38.9;33.8;25.2
45112;PMS5003;30873;53.908;27.576;2023-08-20T17:25:35;41.6;36.2;27.1
45112;PMS5003;30873;53.908;27.576;2023-08-20T17:30:27;34.4;31.4;22.6
45112;PMS5003;30873;53.908;27.576;2023-08-20T17:36:04;27.6;25.8;19.1
45112;PMS5003;30873;53.908;27.576;2023-08-20T17:40:27;30.2;28.8;20.3
45112;PMS5003;30873;53.908;27.576;2023-08-20T17:45:49;30.6;28.1;20.1
45112;PMS5003;30873;53.908;27.576;2023-08-20T17:50:55;26.4;25.9;19.1
45112;PMS5003;30873;53.908;27.576;2023-08-20T17:55:55;29.8;28.1;19.5
45112;PMS5003;30873;53.908;27.576;2023-08-20T18:00:23;31.5;29;20.5
45112;PMS5003;30873;53.908;27.576;2023-08-20T18:05:36;35.1;31.2;21
45112;PMS5003;30873;53.908;27.576;2023-08-20T18:11:03;32.7;30.1;20.9
45112;PMS5003;30873;53.908;27.576;2023-08-20T18:15:35;34.4;31.1;21.9
45112;PMS5003;30873;53.908;27.576;2023-08-20T18:20:41;32.4;29.5;20.4
45112;PMS5003;30873;53.908;27.576;2023-08-20T18:25:47;30.2;28.4;20.2
45112;PMS5003;30873;53.908;27.576;2023-08-20T18:31:03;30.1;28.7;20.1
45112;PMS5003;30873;53.908;27.576;2023-08-20T18:35:37;30.7;28.7;20
45112;PMS5003;30873;53.908;27.576;2023-08-20T18:41:04;29.2;26.9;20
45112;PMS5003;30873;53.908;27.576;2023-08-20T18:45:47;37.4;32.4;21.9
45112;PMS5003;30873;53.908;27.576;2023-08-20T18:50:55;39;34.1;23.6
45112;PMS5003;30873;53.908;27.576;2023-08-20T18:55:45;34.4;30.8;20.8
45112;PMS5003;30873;53.908;27.576;2023-08-20T19:00:47;34.1;30.6;21.1
45112;PMS5003;30873;53.908;27.576;2023-08-20T19:05:35;34.4;31.9;21.1
45112;PMS5003;30873;53.908;27.576;2023-08-20T19:10:23;35.3;31.8;21.4
45112;PMS5003;30873;53.908;27.576;2023-08-20T19:16:03;36.2;32.5;21.1
45112;PMS5003;30873;53.908;27.576;2023-08-20T19:20:31;33.8;30.8;20.6
45112;PMS5003;30873;53.908;27.576;2023-08-20T19:26:03;33.3;30.9;20.2
45112;PMS5003;30873;53.908;27.576;2023-08-20T19:31:05;33.4;31.1;21
45112;PMS5003;30873;53.908;27.576;2023-08-20T19:35:49;31.6;29.5;19.8
45112;PMS5003;30873;53.908;27.576;2023-08-20T19:40:24;30.3;28.1;19.1
45112;PMS5003;30873;53.908;27.576;2023-08-20T19:45:27;30.4;28.1;18.6
45112;PMS5003;30873;53.908;27.576;2023-08-20T19:51:03;29.8;28.2;18.6
45112;PMS5003;30873;53.908;27.576;2023-08-20T19:56:03;30.5;28.6;18.9
45112;PMS5003;30873;53.908;27.576;2023-08-20T20:00:41;29.2;27.8;18.7
45112;PMS5003;30873;53.908;27.576;2023-08-20T20:06:04;30.7;28.7;19.6
45112;PMS5003;30873;53.908;27.576;2023-08-20T20:11:03;30.5;28;18.9
45112;PMS5003;30873;53.908;27.576;2023-08-20T20:15:28;32.4;29.4;19.2
45112;PMS5003;30873;53.908;27.576;2023-08-20T20:20:49;30.2;28.2;18.5
45112;PMS5003;30873;53.908;27.576;2023-08-20T20:25:49;31.2;28.3;19.1
45112;PMS5003;30873;53.908;27.576;2023-08-20T20:30:49;31.1;29;18.4
45112;PMS5003;30873;53.908;27.576;2023-08-20T20:35:57;29.4;28.2;17.9
45112;PMS5003;30873;53.908;27.576;2023-08-20T20:40:23;29.4;27.3;18.7
45112;PMS5003;30873;53.908;27.576;2023-08-20T20:45:28;28.3;26.3;18.2
45112;PMS5003;30873;53.908;27.576;2023-08-20T20:50:49;26.1;24.5;16.7
45112;PMS5003;30873;53.908;27.576;2023-08-20T20:55:23;25.2;23.7;15.8
45112;PMS5003;30873;53.908;27.576;2023-08-20T21:01:03;24.7;23.1;15.5
45112;PMS5003;30873;53.908;27.576;2023-08-20T21:05:50;25.1;23.8;15.1
45112;PMS5003;30873;53.908;27.576;2023-08-20T21:11:04;22.9;21.4;14.4
45112;PMS5003;30873;53.908;27.576;2023-08-20T21:15:40;22.4;21;14.4
45112;PMS5003;30873;53.908;27.576;2023-08-20T21:20:27;22.2;20.4;13.2
45112;PMS5003;30873;53.908;27.576;2023-08-20T21:25:33;20.9;19.8;13.5
45112;PMS5003;30873;53.908;27.576;2023-08-20T21:30:45;24;22;14.3
45112;PMS5003;30873;53.908;27.576;2023-08-20T21:35:39;23.9;21.8;15
45112;PMS5003;30873;53.908;27.576;2023-08-20T21:40:44;22.9;21.4;14.1
45112;PMS5003;30873;53.908;27.576;2023-08-20T21:46:04;24.6;22.5;15.7
45112;PMS5003;30873;53.908;27.576;2023-08-20T21:50:43;24.6;22.3;14.9
45112;PMS5003;30873;53.908;27.576;2023-08-20T21:55:23;23.6;22;14.7
45112;PMS5003;30873;53.908;27.576;2023-08-20T22:01:03;24.9;23.1;15.8
45112;PMS5003;30873;53.908;27.576;2023-08-20T22:05:27;26.1;24.6;17
45112;PMS5003;30873;53.908;27.576;2023-08-20T22:10:41;25.3;23.4;16.3
45112;PMS5003;30873;53.908;27.576;2023-08-20T22:15:56;26.8;24.6;16.7
45112;PMS5003;30873;53.908;27.576;2023-08-20T22:20:55;25.2;23.6;16.1
45112;PMS5003;30873;53.908;27.576;2023-08-20T22:25:47;26.2;24.5;16.4
45112;PMS5003;30873;53.908;27.576;2023-08-20T22:30:59;26.8;24.9;17.1
45112;PMS5003;30873;53.908;27.576;2023-08-20T22:36:06;25.4;23.7;16
45112;PMS5003;30873;53.908;27.576;2023-08-20T22:41:00;26.3;24.2;16.9
45112;PMS5003;30873;53.908;27.576;2023-08-20T22:45:35;26.6;24.9;17.1
45112;PMS5003;30873;53.908;27.576;2023-08-20T22:50:39;26.6;24.7;16.9
45112;PMS5003;30873;53.908;27.576;2023-08-20T22:56:06;28.8;26.5;17.4
45112;PMS5003;30873;53.908;27.576;2023-08-20T23:00:24;28;26.3;18
45112;PMS5003;30873;53.908;27.576;2023-08-20T23:06:04;29.4;26.1;17.8
45112;PMS5003;30873;53.908;27.576;2023-08-20T23:10:48;28.8;26.7;17.6
45112;PMS5003;30873;53.908;27.576;2023-08-20T23:15:56;31.8;29.6;19.3
45112;PMS5003;30873;53.908;27.576;2023-08-20T23:20:30;30.2;27.6;18.3
45112;PMS5003;30873;53.908;27.576;2023-08-20T23:25:48;29.6;27.6;19
45112;PMS5003;30873;53.908;27.576;2023-08-20T23:30:35;30.1;28;19
45112;PMS5003;30873;53.908;27.576;2023-08-20T23:35:24;30.4;28.6;18.1
45112;PMS5003;30873;53.908;27.576;2023-08-20T23:41:04;31.6;28.8;18.7
45112;PMS5003;30873;53.908;27.576;2023-08-20T23:45:34;31.7;28.8;18.3
45112;PMS5003;30873;53.908;27.576;2023-08-20T23:51:06;30;27.4;17.6
45112;PMS5003;30873;53.908;27.576;2023-08-20T23:56:06;30.4;27.8;18.1
